Terminal Aerodrome Forecast
Issued by NWS

Home | Current Version | Previous Version | Text Only | Print | Product List | Glossary On
Versions: 1 2 3 4 5 6 7 8 9 10 11 12 13 14
713
FTUS42 TJSJ 240522
TAFJBQ
TAF
TJBQ 240522Z 2406/2506 VRB03KT P6SM SCT020 SCT050 BKN250
     FM241600 07010KT P6SM SCT020 SCT050 BKN250
     FM242200 VRB03KT P6SM SCT020 SCT050 BKN250
      AMD NOT SKED=

USA.gov is the U.S. government's official web portal to all federal, state and local government web resources and services.